Terminal Aerodrome Forecast
Issued by NWS Twin Cities, MN

Home | Current Version | Previous Version | Text Only | Print | Product List | Glossary On
Versions: 1 2 3 4 5 6 7 8 9 10 11 12 13 14 15
000
FTUS43 KMPX 200520
TAFSTC
TAF
KSTC 200520Z 2006/2106 13010KT P6SM OVC200 WS020/20045KT
     FM200900 15010KT P6SM OVC050
     FM201500 16009KT 4SM -SHRA BR VCTS OVC010CB
      TEMPO 2015/2019 2SM TSRA BR SCT010 BKN020CB
     FM202000 21009KT P6SM BKN020
     FM210000 26010KT P6SM SCT020 BKN060=

USA.gov is the U.S. government's official web portal to all federal, state and local government web resources and services.